TimeCST,TemperatureF,Dew PointF,Humidity,Sea Level PressureIn,VisibilityMPH,Wind Direction,Wind SpeedMPH,Gust SpeedMPH,PrecipitationIn,Events,Conditions,WindDirDegrees,DateUTC
12:00 AM,69,68,95,29.93,5,Calm,Calm,,,,Mist,,2013-08-07 06:00:00
12:00 AM,68.0,68.0,100,-9999,5.0,Calm,Calm,-,N/A,,Mostly Cloudy,0,2013-08-07 06:00:00
6:00 AM,62,61,95,29.94,5,Calm,Calm,,,,Mist,,2013-08-07 12:00:00
6:00 AM,60.8,60.8,100,-9999,5.0,Calm,Calm,-,N/A,,Mostly Cloudy,0,2013-08-07 12:00:00
7:00 AM,66.2,64.4,94,-9999,5.0,Calm,Calm,-,N/A,,Mostly Cloudy,0,2013-08-07 13:00:00
8:00 AM,71.6,66.2,83,-9999,6.2,NNW,2.3,-,N/A,,Scattered Clouds,340,2013-08-07 14:00:00
9:00 AM,74,64,65,29.94,6,North,3.5,,,,Haze,350,2013-08-07 15:00:00
9:00 AM,75.2,64.4,69,-9999,6.2,North,3.5,-,N/A,,Scattered Clouds,350,2013-08-07 15:00:00
10:00 AM,77.0,64.4,65,-9999,6.2,NNE,4.6,-,N/A,,Scattered Clouds,20,2013-08-07 16:00:00
11:00 AM,77.0,64.4,65,-9999,6.2,NNE,4.6,-,N/A,,Scattered Clouds,20,2013-08-07 17:00:00
12:00 PM,78,60,45,29.92,6,NNE,4.6,,,,Haze,20,2013-08-07 18:00:00
12:00 PM,78.8,60.8,54,-9999,6.2,NNE,4.6,-,N/A,,Scattered Clouds,20,2013-08-07 18:00:00
1:00 PM,80.6,59.0,48,-9999,6.2,NNW,6.9,-,N/A,,Scattered Clouds,340,2013-08-07 19:00:00
2:00 PM,80.6,59.0,48,-9999,6.2,North,8.1,-,N/A,,Scattered Clouds,350,2013-08-07 20:00:00
3:00 PM,81,58,35,29.86,6,NNW,8.1,,,,Haze,340,2013-08-07 21:00:00
3:00 PM,80.6,57.2,45,-9999,6.2,NNW,8.1,-,N/A,,Scattered Clouds,340,2013-08-07 21:00:00
4:00 PM,80.6,57.2,45,-9999,6.2,NNE,6.9,-,N/A,,Partly Cloudy,20,2013-08-07 22:00:00
5:00 PM,78.8,59.0,51,-9999,6.2,North,6.9,-,N/A,,Partly Cloudy,350,2013-08-07 23:00:00
6:00 PM,77,63,54,29.87,6,North,4.6,,,,Smoke,0,2013-08-08 00:00:00
6:00 PM,77.0,62.6,61,-9999,6.2,North,4.6,-,N/A,,Scattered Clouds,360,2013-08-08 00:00:00
7:00 PM,73.4,66.2,78,-9999,6.2,NNW,4.6,-,N/A,,Scattered Clouds,340,2013-08-08 01:00:00
8:00 PM,71.6,68.0,88,-9999,6.2,Calm,Calm,-,N/A,,Scattered Clouds,0,2013-08-08 02:00:00
9:00 PM,71,68,87,29.88,6,North,2.3,,,,Mostly Cloudy,0,2013-08-08 03:00:00
9:00 PM,71.6,68.0,88,-9999,6.2,North,2.3,-,N/A,,Mostly Cloudy,360,2013-08-08 03:00:00
10:00 PM,69.8,68.0,94,-9999,6.2,Calm,Calm,-,N/A,,Partly Cloudy,0,2013-08-08 04:00:00
11:00 PM,69.8,68.0,94,-9999,5.0,Calm,Calm,-,N/A,,Mostly Cloudy,0,2013-08-08 05:00:00